»·PEaware :: AAL1242 KSFO-KPHX

AAL1242 :: KSFO-KPHX

FLIGHT INFORMATION

Flight Status: Arrived
Operator:
American Airlines
More flights by this operator :: More flights under this callsign
Pilot: Eric W. (14379)
Aircraft: BOEING 737-800
(B738)
More flights by this aircraft type
Origin: KSFO San Francisco Intl
United States
Destination: KPHX Phoenix Sky Harbor Intl
United States
More flights between these airports :: More routes between these airports
Route: +SSTIK3 NTELL Q162 MYCAL BLD PRFUM WOTRO BRUSR1
File this flight plan on PilotEdge
Remarks: PBN / A1B1C1D1S1S2 NAV / RNVD1E2A1 DAT / V DOF / 180504 REG / N806SB EET / KZLA0038 KZAB0107 RMK / NRP SIMBRIEF
Altitude:
(Current/Filed)
39,000ft
Speed:
(Current/Filed)
448kts
Departed: 03-May-18 04:33 PM
Arrived: 03-May-18 06:39 PM
Distance/Time
Traveled:
565nm/2:06
Distance/Time
To Go:
Arrived

Flight Plot

Page will automatically refresh every two minutes.

Flight plan parsing failed; only flown route is shown


Map Options




Map Legend


Flown Route
Filed Route
Departure Airport
Arrival Airport
Navaid (VOR, NDB)
Fix

Horizontal Profiles

Position Reports

Time Latitude Longitude Heading Altitude Ground
Speed
03-May-18 15:58 37.617862 -122.380612 257 31ft 0kts
03-May-18 16:00 37.617862 -122.380612 257 31ft 0kts
03-May-18 16:01 37.617862 -122.380612 257 31ft 0kts
03-May-18 16:02 37.617862 -122.380612 257 31ft 0kts
03-May-18 16:03 37.617862 -122.380612 257 31ft 0kts
03-May-18 16:04 37.617862 -122.380612 257 31ft 0kts
03-May-18 16:05 37.617862 -122.380612 257 31ft 0kts
03-May-18 16:06 37.617862 -122.380612 257 31ft 0kts
03-May-18 16:07 37.617862 -122.380612 257 31ft 0kts
03-May-18 16:08 37.617862 -122.380612 257 31ft 0kts
03-May-18 16:09 37.617862 -122.380612 257 31ft 0kts
03-May-18 16:10 37.617862 -122.380612 257 31ft 0kts
03-May-18 16:11 37.617862 -122.380612 257 31ft 0kts
03-May-18 16:12 37.617862 -122.380612 257 31ft 0kts
03-May-18 16:13 37.617862 -122.380612 257 31ft 0kts
03-May-18 16:14 37.617862 -122.380612 257 31ft 0kts
03-May-18 16:15 37.617862 -122.380612 257 31ft 0kts
03-May-18 16:16 37.617862 -122.380612 257 31ft 0kts
03-May-18 16:17 37.617862 -122.380612 257 31ft 0kts
03-May-18 16:18 37.617862 -122.380612 257 31ft 0kts
03-May-18 16:19 37.617862 -122.380612 257 31ft 0kts
03-May-18 16:20 37.617862 -122.380612 257 31ft 0kts
03-May-18 16:21 37.617862 -122.380612 257 31ft 0kts
03-May-18 16:22 37.617862 -122.380612 257 31ft 0kts
03-May-18 16:23 37.617915 -122.380313 257 31ft 2kts
03-May-18 16:24 37.617991 -122.379892 257 30ft 2kts
03-May-18 16:25 37.618244 -122.379673 159 30ft 2kts
03-May-18 16:26 37.618335 -122.379746 147 30ft 0kts
03-May-18 16:27 37.618335 -122.379746 147 30ft 0kts
03-May-18 16:28 37.618264 -122.379694 152 30ft 5kts
03-May-18 16:29 37.616182 -122.379935 207 30ft 15kts
03-May-18 16:30 37.613631 -122.381634 208 31ft 16kts
03-May-18 16:31 37.611352 -122.383139 208 31ft 13kts
03-May-18 16:32 37.609346 -122.383899 127 31ft 10kts
03-May-18 16:33 37.609980 -122.381537 24 27ft 53kts
03-May-18 16:34 37.628740 -122.367772 20 802ft 164kts
03-May-18 16:35 37.658479 -122.362889 359 2091ft 211kts
03-May-18 16:36 37.705417 -122.368351 318 4087ft 250kts
03-May-18 16:37 37.705175 -122.422050 224 6549ft 270kts
03-May-18 16:38 37.656198 -122.439826 192 8873ft 287kts
03-May-18 16:39 37.598275 -122.452098 191 10716ft 317kts
03-May-18 16:40 37.534550 -122.465138 187 12809ft 339kts
03-May-18 16:41 37.472637 -122.444751 142 15114ft 350kts
03-May-18 16:42 37.425669 -122.370048 122 17552ft 367kts
03-May-18 16:43 37.393050 -122.295096 98 19649ft 372kts
03-May-18 16:44 37.382920 -122.208380 99 21494ft 386kts
03-May-18 16:45 37.366343 -122.119383 101 23192ft 400kts
03-May-18 16:46 37.345807 -122.014308 101 25035ft 413kts
03-May-18 16:47 37.327996 -121.924544 102 26456ft 423kts
03-May-18 16:48 37.308813 -121.828781 102 27851ft 432kts
03-May-18 16:49 37.289008 -121.730345 102 29159ft 441kts
03-May-18 16:50 37.267388 -121.623923 102 30689ft 443kts
03-May-18 16:51 37.246283 -121.520559 102 32175ft 442kts
03-May-18 16:52 37.224152 -121.412665 102 33615ft 440kts
03-May-18 16:53 37.204166 -121.315808 103 34792ft 439kts
03-May-18 16:54 37.181192 -121.204782 103 36101ft 436kts
03-May-18 16:55 37.159882 -121.102446 103 37107ft 436kts
03-May-18 16:56 37.139359 -121.004394 103 37966ft 436kts
03-May-18 16:57 37.118592 -120.905461 103 38760ft 436kts
03-May-18 16:58 37.097174 -120.804164 103 39192ft 446kts
03-May-18 16:59 37.071532 -120.683337 103 39194ft 469kts
03-May-18 17:00 37.047391 -120.570158 103 39183ft 477kts
03-May-18 17:01 37.022687 -120.455149 103 39189ft 477kts
03-May-18 17:01 37.002119 -120.359944 103 39188ft 477kts
03-May-18 17:03 36.969701 -120.210290 104 39185ft 478kts
03-May-18 17:04 36.944080 -120.092717 104 39185ft 478kts
03-May-18 17:05 36.920647 -119.985740 104 39184ft 478kts
03-May-18 17:06 36.911053 -119.855251 73 39197ft 470kts
03-May-18 17:07 36.943696 -119.747839 64 39187ft 466kts
03-May-18 17:07 36.973115 -119.658536 64 39187ft 467kts
03-May-18 17:08 37.008449 -119.550848 64 39187ft 467kts
03-May-18 17:09 37.043760 -119.442647 64 39187ft 467kts
03-May-18 17:10 37.077656 -119.338106 65 39221ft 466kts
03-May-18 17:11 37.112263 -119.231099 64 39314ft 468kts
03-May-18 17:12 37.147573 -119.121691 64 39319ft 468kts
03-May-18 17:13 37.190327 -118.989445 64 39319ft 467kts
03-May-18 17:14 37.238370 -118.841126 64 39319ft 467kts
03-May-18 17:15 37.282878 -118.690507 78 39190ft 472kts
03-May-18 17:16 37.295947 -118.527033 81 39159ft 475kts
03-May-18 17:17 37.309127 -118.371089 80 39165ft 475kts
03-May-18 17:18 37.322855 -118.214895 81 39155ft 475kts
03-May-18 17:19 37.337010 -118.056606 81 39156ft 475kts
03-May-18 17:20 37.350680 -117.905639 80 39155ft 475kts
03-May-18 17:21 37.339356 -117.739475 95 39160ft 480kts
03-May-18 17:22 37.323349 -117.574482 94 39169ft 479kts
03-May-18 17:23 37.310036 -117.430008 94 39239ft 479kts
03-May-18 17:24 37.295429 -117.312436 109 39241ft 482kts
03-May-18 17:25 37.225818 -117.185679 129 39238ft 482kts
03-May-18 17:26 37.143638 -117.053838 128 39237ft 482kts
03-May-18 17:27 37.062651 -116.922895 133 39172ft 482kts
03-May-18 17:28 36.959142 -116.819194 143 39160ft 480kts
03-May-18 17:29 36.864658 -116.725046 142 39157ft 481kts
03-May-18 17:30 36.762660 -116.616689 135 39152ft 487kts
03-May-18 17:31 36.678589 -116.518271 135 39158ft 488kts
03-May-18 17:32 36.587293 -116.411589 135 39159ft 488kts
03-May-18 17:33 36.493001 -116.301492 136 39152ft 488kts
03-May-18 17:34 36.424456 -116.160476 110 39156ft 479kts
03-May-18 17:35 36.374862 -116.007441 110 39157ft 481kts
03-May-18 17:36 36.324997 -115.855557 110 39160ft 481kts
03-May-18 17:37 36.274078 -115.702309 110 39160ft 481kts
03-May-18 17:38 36.223518 -115.550370 110 39140ft 480kts
03-May-18 17:39 36.172989 -115.398206 110 39136ft 481kts
03-May-18 17:40 36.127017 -115.259261 110 39127ft 481kts
03-May-18 17:41 36.076962 -115.107502 110 39133ft 481kts
03-May-18 17:42 36.027190 -114.956129 110 39133ft 481kts
03-May-18 17:43 35.977974 -114.818998 122 39152ft 483kts
03-May-18 17:44 35.903642 -114.685533 122 39160ft 483kts
03-May-18 17:45 35.857611 -114.600158 122 39155ft 484kts
03-May-18 17:46 35.786217 -114.466727 121 39157ft 484kts
03-May-18 17:47 35.717003 -114.336919 122 39153ft 484kts
03-May-18 17:48 35.664136 -114.237474 122 39152ft 484kts
03-May-18 17:49 35.614576 -114.144120 122 39176ft 484kts
03-May-18 17:50 35.566211 -114.053011 122 39182ft 484kts
03-May-18 17:51 35.518089 -113.962243 121 39182ft 483kts
03-May-18 17:52 35.471671 -113.875874 122 39185ft 484kts
03-May-18 17:53 35.420957 -113.782536 122 39186ft 483kts
03-May-18 17:54 35.372208 -113.692993 122 38455ft 476kts
03-May-18 17:55 35.323526 -113.603582 122 36556ft 473kts
03-May-18 17:56 35.272842 -113.510471 121 34578ft 478kts
03-May-18 17:57 35.225764 -113.423920 121 32766ft 483kts
03-May-18 17:58 35.178027 -113.336122 121 30925ft 480kts
03-May-18 17:59 35.128887 -113.246033 121 29451ft 456kts
03-May-18 18:00 35.083991 -113.164154 121 29196ft 461kts
03-May-18 18:01 35.039882 -113.084164 121 29189ft 463kts
03-May-18 18:02 34.994294 -113.001862 121 28763ft 469kts
03-May-18 18:03 34.948859 -112.920093 121 27855ft 448kts
03-May-18 18:04 34.902012 -112.835886 121 27307ft 451kts
03-May-18 18:05 34.862348 -112.764524 121 26939ft 447kts
03-May-18 18:06 34.817001 -112.683427 121 26464ft 443kts
03-May-18 18:07 34.771688 -112.602748 121 25659ft 437kts
03-May-18 18:08 34.724161 -112.518209 121 25440ft 433kts
03-May-18 18:09 34.669443 -112.443621 139 24641ft 442kts
03-May-18 18:10 34.607131 -112.383913 140 22798ft 420kts
03-May-18 18:11 34.543724 -112.322813 142 20413ft 394kts
03-May-18 18:12 34.487579 -112.268548 141 18191ft 379kts
03-May-18 18:14 34.432393 -112.223279 161 17174ft 368kts
03-May-18 18:15 34.361320 -112.204974 169 17146ft 366kts
03-May-18 18:16 34.291162 -112.187833 170 16601ft 348kts
03-May-18 18:17 34.224351 -112.171028 170 16070ft 342kts
03-May-18 18:18 34.160830 -112.154969 170 15559ft 339kts
03-May-18 18:19 34.095046 -112.138251 170 15034ft 337kts
03-May-18 18:20 34.033167 -112.115430 162 13976ft 331kts
03-May-18 18:21 33.973880 -112.091301 162 12748ft 326kts
03-May-18 18:22 33.911511 -112.066005 162 11488ft 316kts
03-May-18 18:23 33.859750 -112.044980 162 10900ft 315kts
03-May-18 18:24 33.804405 -112.022475 163 9919ft 304kts
03-May-18 18:25 33.749221 -112.000102 162 9029ft 292kts
03-May-18 18:26 33.702901 -111.981380 162 8517ft 268kts
03-May-18 18:27 33.658200 -111.963331 162 8020ft 260kts
03-May-18 18:28 33.615219 -111.945966 162 7864ft 261kts
03-May-18 18:29 33.573656 -111.929104 163 7426ft 236kts
03-May-18 18:30 33.534836 -111.908703 147 6253ft 236kts
03-May-18 18:31 33.500462 -111.877894 144 4731ft 226kts
03-May-18 18:32 33.469015 -111.851868 167 3522ft 198kts
03-May-18 18:33 33.440862 -111.857869 241 3006ft 160kts
03-May-18 18:34 33.440091 -111.890431 272 2800ft 154kts
03-May-18 18:35 33.440666 -111.921225 271 2303ft 129kts
03-May-18 18:36 33.440748 -111.947994 270 1886ft 126kts
03-May-18 18:37 33.440824 -111.974263 270 1472ft 120kts
03-May-18 18:38 33.440839 -111.998732 270 1135ft 103kts
03-May-18 18:39 33.440219 -112.007293 176 1129ft 3kts
03-May-18 18:40 33.439026 -112.006711 97 1129ft 13kts
03-May-18 18:41 33.439038 -112.003423 90 1130ft 17kts
03-May-18 18:42 33.439029 -112.000635 90 1131ft 0kts
03-May-18 18:43 33.439036 -111.998834 90 1133ft 14kts
03-May-18 18:44 33.438767 -111.996361 191 1133ft 6kts
03-May-18 18:45 33.438318 -111.996603 208 1133ft 0kts
03-May-18 18:46 33.438318 -111.996603 208 1133ft 0kts
03-May-18 18:47 33.438318 -111.996603 208 1133ft 0kts

Navigation Log

Ident Type
Flight plan parsing failed, navigation log unavailable